• Join FlightAware (Why Join?)
  • Login
  • US Flag 
03:45AM EDT


 

Airport Tracker/Info


-or-


 

Live Flight TrackerFlight Track Log ✈ N7586Z ✈ 06-Oct-2013 ✈ KLSE - KABR

Flight Track Log - Related Links

Times and Time Zones

All times are in EDT time to prevent confusion due to time zone crossing. See the N7586Z flight status page for this flight to view local times or setup timezone preferences in your user account.

Time Position Orientation Groundspeed Altitude Reporting Facility
EDT Latitude Longitude Course Direction KTS MPH feet Rate Location/Type
12:30PM 43.9450 -91.4620 286° West 206 237 8,000  Level FlightAware
12:31PM 43.9967 -91.7180 286° West  Level Estimated
12:31PM 43.9530 -91.4920 290° West 210 242 8,600  Level FlightAware
12:31PM 43.9600 -91.5220 288° West 210 242 9,300 1,500 Climbing FlightAware
12:31PM 43.9660 -91.5460 289° West 215 247 9,700 1,500 Climbing FlightAware
12:32PM 43.9780 -91.5940 289° West 222 255 10,700 1,800 Climbing FlightAware
12:32PM 43.9900 -91.6390 290° West 223 257 11,800 1,680 Climbing FlightAware
12:33PM 44.0020 -91.6880 289° West 224 258 12,700 1,560 Climbing FlightAware
12:34PM 44.0140 -91.7380 288° West 226 260 13,700 1,620 Climbing FlightAware
12:34PM 44.0260 -91.7840 290° West 227 261 14,600 1,560 Climbing FlightAware
12:35PM 44.0380 -91.8310 290° West 229 264 15,500 1,500 Climbing FlightAware
12:35PM 44.0500 -91.8820 288° West 231 266 16,400 1,380 Climbing FlightAware
12:36PM 44.0630 -91.9330 290° West 234 269 17,200 1,380 Climbing FlightAware
12:36PM 44.0750 -91.9810 289° West 236 272 18,000 1,320 Climbing FlightAware
12:37PM 44.0880 -92.0330 289° West 240 276 18,800 1,260 Climbing FlightAware
12:38PM 44.1000 -92.0840 288° West 240 276 19,500 1,320 Climbing FlightAware
12:38PM 44.1120 -92.1320 289° West 237 273 20,300 1,440 Climbing FlightAware
12:38PM 44.1133 -92.1372 289° West 238 274 20,500 1,200 Climbing FlightAware ADS-B
12:39PM 44.1380 -92.2370 289° West 239 275 21,800 1,200 Climbing FlightAware
12:40PM 44.1500 -92.2860 289° West 238 274 22,500 1,200 Climbing FlightAware
12:41PM 44.1620 -92.3380 288° West 235 270 23,200 1,200 Climbing FlightAware
12:41PM 44.1740 -92.3870 289° West 233 268 23,900 1,080 Climbing FlightAware
12:42PM 44.1860 -92.4350 289° West 233 268 24,500 960 Climbing FlightAware
12:42PM 44.1990 -92.4880 289° West 233 268 25,100 900 Climbing FlightAware
12:43PM 44.2100 -92.5340 288° West 234 269 25,600 780 Climbing FlightAware
12:43PM 44.2217 -92.5826 289° West 234 269 26,000 360 Climbing FlightAware ADS-B
12:44PM 44.2314 -92.6233 289° West 255 293 26,000  Level FlightAware ADS-B
12:45PM 44.2490 -92.6960 289° West 273 314 26,000  Level FlightAware
12:45PM 44.2493 -92.6984 281° West 276 318 26,000  Level FlightAware ADS-B
12:45PM 44.2640 -92.7590 289° West 284 327 26,000  Level FlightAware
12:46PM 44.2770 -92.8130 289° West 289 333 26,000  Level FlightAware
12:46PM 44.2911 -92.8730 288° West 295 339 26,000  Level FlightAware ADS-B
12:47PM 44.3041 -92.9277 288° West 299 344 26,000  Level FlightAware ADS-B
12:48PM 44.3230 -93.0070 288° West 299 344 26,000  Level FlightAware
12:48PM 44.3261 -93.0208 288° West 299 344 26,000  Level FlightAware ADS-B
12:48PM 44.3423 -93.0891 288° West 300 345 26,000  Level FlightAware ADS-B
12:49PM 44.3563 -93.1488 288° West 300 345 26,000  Level FlightAware ADS-B
12:49PM 44.3694 -93.2046 288° West 301 346 26,000  Level FlightAware ADS-B
12:50PM 44.3830 -93.2650 287° West 299 344 26,000  Level FlightAware
12:50PM 44.3952 -93.3152 289° West 300 345 26,000  Level FlightAware ADS-B
12:51PM 44.4125 -93.3898 288° West 300 345 26,000  Level FlightAware ADS-B
12:52PM 44.4280 -93.4580 288° West 297 342 26,000  Level FlightAware
12:52PM 44.4430 -93.5230 288° West 296 341 26,000  Level FlightAware
12:53PM 44.4570 -93.5830 288° West 294 338 26,000  Level FlightAware
12:53PM 44.4720 -93.6470 288° West 290 334 26,000  Level FlightAware
12:54PM 44.4870 -93.7110 288° West 289 333 26,000  Level FlightAware
12:55PM 44.5000 -93.7690 287° West 287 330 26,000  Level FlightAware
12:55PM 44.5140 -93.8320 287° West 285 328 26,000  Level FlightAware
12:56PM 44.5290 -93.8960 288° West 286 329 26,000  Level FlightAware
12:56PM 44.5430 -93.9580 288° West 286 329 26,000  Level FlightAware
12:57PM 44.5570 -94.0220 287° West 283 326 26,000  Level FlightAware
12:57PM 44.5710 -94.0810 288° West 279 321 26,000  Level FlightAware
12:58PM 44.5830 -94.1380 286° West 275 316 26,000  Level FlightAware
12:59PM 44.5970 -94.1990 288° West 271 312 26,000  Level FlightAware
12:59PM 44.6090 -94.2550 287° West 272 313 26,000  Level FlightAware
01:00PM 44.6230 -94.3160 288° West 272 313 26,000  Level FlightAware
01:00PM 44.6370 -94.3780 288° West 270 311 26,000  Level FlightAware
01:01PM 44.6480 -94.4310 286° West 266 306 26,000  Level FlightAware
01:02PM 44.6620 -94.4910 288° West 266 306 26,000  Level FlightAware
01:02PM 44.6750 -94.5530 286° West 266 306 26,000  Level FlightAware
01:03PM 44.6870 -94.6050 288° West 267 307 26,000  Level FlightAware
01:03PM 44.6990 -94.6630 286° West 267 307 26,000  Level FlightAware
01:04PM 44.7120 -94.7200 288° West 269 310 26,000  Level FlightAware
01:05PM 44.7260 -94.7860 287° West 269 310 26,000  Level FlightAware
01:05PM 44.7380 -94.8380 288° West 270 311 26,000  Level FlightAware
01:06PM 44.7520 -94.9040 287° West 271 312 26,000  Level FlightAware
01:06PM 44.7640 -94.9590 287° West 271 312 26,000  Level FlightAware
01:07PM 44.7760 -95.0160 287° West 270 311 26,000  Level FlightAware
01:07PM 44.7900 -95.0800 287° West 272 313 26,000  Level FlightAware
01:08PM 44.8020 -95.1350 287° West 273 314 26,000  Level FlightAware
01:09PM 44.8150 -95.1990 286° West 273 314 26,000  Level FlightAware
01:09PM 44.8280 -95.2610 286° West 273 314 26,000  Level FlightAware
01:10PM 44.8400 -95.3160 287° West 273 314 26,000  Level FlightAware
01:10PM 44.8530 -95.3770 287° West 274 315 26,000  Level FlightAware
01:11PM 44.8670 -95.4430 287° West 275 316 26,000  Level FlightAware
01:12PM 44.8810 -95.5110 286° West 275 316 26,000  Level FlightAware
01:12PM 44.8930 -95.5690 286° West 275 316 26,000  Level FlightAware
01:13PM 44.9050 -95.6270 286° West 275 316 26,000  Level FlightAware
01:13PM 44.9180 -95.6890 287° West 274 315 26,000  Level FlightAware
01:14PM 44.9300 -95.7440 287° West 273 314 26,000  Level FlightAware
01:15PM 44.9430 -95.8080 286° West 271 312 26,000  Level FlightAware
01:15PM 44.9560 -95.8690 287° West 270 311 26,000  Level FlightAware
01:16PM 44.9680 -95.9310 285° West 270 311 26,000  Level FlightAware
01:16PM 44.9790 -95.9840 286° West 269 310 26,000  Level FlightAware
01:17PM 44.9920 -96.0450 287° West 270 311 26,000  Level FlightAware
01:17PM 45.0030 -96.0990 286° West 271 312 26,000  Level FlightAware
01:18PM 45.0160 -96.1640 286° West 271 312 26,000  Level FlightAware
01:19PM 45.0280 -96.2230 286° West 272 313 26,000  Level FlightAware
01:19PM 45.0400 -96.2840 286° West 273 314 26,000  Level FlightAware
01:20PM 45.0500 -96.3340 286° West 272 313 26,000  Level FlightAware
01:20PM 45.0610 -96.3890 286° West 272 313 26,000  Level FlightAware
01:21PM 45.0740 -96.4520 286° West 272 313 26,000  Level FlightAware
01:21PM 45.0840 -96.5030 286° West 270 311 26,000  Level FlightAware
01:22PM 45.0960 -96.5600 287° West 268 308 26,000  Level FlightAware
01:23PM 45.1090 -96.6260 286° West 263 303 26,000  Level FlightAware
01:23PM 45.1200 -96.6830 285° West 262 302 26,000  Level FlightAware
01:24PM 45.1320 -96.7450 285° West 262 302 26,000  Level FlightAware
01:24PM 45.1440 -96.8050 286° West 262 302 26,000 -480 Level FlightAware
01:25PM 45.1540 -96.8560 286° West 278 320 25,500 -1,380 Descending FlightAware
01:25PM 45.1680 -96.9250 286° West 303 349 24,500 -1,740 Descending FlightAware
01:26PM 45.1820 -96.9970 285° West 317 365 23,400 -1,800 Descending FlightAware
01:27PM 45.1950 -97.0650 285° West 323 372 22,400 -1,860 Descending FlightAware
01:27PM 45.2060 -97.1290 284° West 325 374 21,400 -1,260 Descending FlightAware
01:28PM 45.2160 -97.2110 280° West 324 373 20,900 -420 Descending FlightAware
01:28PM 45.2240 -97.2750 280° West 324 373 20,900  Level FlightAware
01:29PM 45.2310 -97.3390 279° West 324 373 20,900  Level FlightAware
01:30PM 45.2380 -97.4040 279° West 324 373 20,900  Level FlightAware
01:30PM 45.2450 -97.4680 279° West 324 373 20,900  Level FlightAware
01:31PM 45.2520 -97.5320 279° West 324 373 20,900 -5,520 Level FlightAware
01:32PM 45.2722 -97.6656 279° West 304 350 13,400 -5,160 Descending Minneapolis Center
01:33PM 45.2864 -97.7789 280° West 297 342 11,700 -1,920 Descending Minneapolis Center
01:34PM 45.2958 -97.8825 277° West 277 319 9,500 -2,100 Descending Minneapolis Center
01:35PM 45.3111 -97.9825 282° West 265 305 7,400 -2,040 Descending Minneapolis Center
01:37PM 45.3609 -98.1403 286° West  Level Estimated
01:44PM 45.4333 -98.4167 270° West  Level FlightAware Approximate
01:45PM 45.4491 -98.4218 270° West  Level Estimated
01:46PM 45.4491 -98.4218 270° West  Level Estimated